Time;durP1;ratioP1;P1;durP2;ratioP2;P2;SDS_P1;SDS_P2;PMS_P1;PMS_P2;Temp;Humidity;BMP_temperature;BMP_pressure;BME280_temperature;BME280_humidity;BME280_pressure;Samples;Min_cycle;Max_cycle;Signal;HPM_P1;HPM_P2
2022/09/30 00:01:01;;;;;;;31.12;17.95;;;;;;;12.59;98.58;93864.48;1673095;85;21020;-59
2022/09/30 00:03:29;;;;;;;27.58;17.10;;;;;;;12.64;98.30;93857.51;1666166;86;21127;-58
2022/09/30 00:06:03;;;;;;;23.90;14.53;;;;;;;12.62;97.50;93868.27;1647575;87;21010;-58
2022/09/30 00:08:31;;;;;;;20.77;14.55;;;;;;;12.55;97.20;93861.79;1666478;86;21030;-57
2022/09/30 00:11:03;;;;;;;21.50;14.87;;;;;;;12.39;97.01;93866.45;1647485;87;21128;-59
2022/09/30 00:13:32;;;;;;;26.95;17.07;;;;;;;12.27;97.34;93868.89;1651126;86;21516;-59
2022/09/30 00:16:00;;;;;;;27.80;16.90;;;;;;;12.18;97.71;93859.97;1653052;86;21809;-58
2022/09/30 00:18:28;;;;;;;26.00;16.48;;;;;;;12.14;98.34;93869.84;1664091;86;21553;-59
2022/09/30 00:20:55;;;;;;;29.32;15.72;;;;;;;12.16;99.25;93860.47;1665834;86;21021;-59
2022/09/30 00:23:22;;;;;;;24.63;15.32;;;;;;;12.22;99.30;93867.42;1663755;86;21089;-58
2022/09/30 00:25:50;;;;;;;24.57;14.38;;;;;;;12.25;99.14;93867.23;1648555;85;21080;-58
2022/09/30 00:28:18;;;;;;;21.37;13.68;;;;;;;12.28;98.79;93869.66;1676377;85;21139;-59
2022/09/30 00:30:45;;;;;;;22.95;14.70;;;;;;;12.30;98.82;93867.92;1651270;85;21100;-59
2022/09/30 00:33:12;;;;;;;24.75;13.93;;;;;;;12.31;98.70;93863.95;1676293;84;21077;-58
2022/09/30 00:35:39;;;;;;;22.85;12.88;;;;;;;12.30;98.47;93861.03;1676294;85;21029;-57
2022/09/30 00:38:06;;;;;;;22.75;13.20;;;;;;;12.29;98.59;93869.80;1663866;85;21081;-59
2022/09/30 00:40:34;;;;;;;23.35;13.60;;;;;;;12.31;98.80;93872.23;1664000;86;21250;-59
2022/09/30 00:43:01;;;;;;;21.70;14.83;;;;;;;12.28;98.62;93875.92;1612896;87;21076;-58
2022/09/30 00:45:28;;;;;;;26.55;15.75;;;;;;;12.22;98.51;93883.36;1671311;85;21099;-58
2022/09/30 00:48:07;;;;;;;23.05;15.58;;;;;;;12.13;98.70;93882.70;1672001;84;21042;-58
2022/09/30 00:50:54;;;;;;;24.55;15.55;;;;;;;12.09;99.06;93874.63;1705114;84;21518;-58
2022/09/30 00:53:47;;;;;;;20.82;13.95;;;;;;;12.06;98.96;93877.59;1704472;82;21270;-58
2022/09/30 00:56:20;;;;;;;33.67;17.77;;;;;;;12.03;99.43;93887.56;1705070;84;21019;-59
2022/09/30 00:59:05;;;;;;;26.27;14.93;;;;;;;11.96;99.43;93893.48;1705341;83;22284;-59
2022/09/30 01:01:33;;;;;;;33.05;15.32;;;;;;;11.92;99.96;93887.38;1704139;84;21029;-58
2022/09/30 01:04:04;;;;;;;21.65;13.70;;;;;;;11.91;100.00;93897.52;1705069;83;21073;-58
2022/09/30 01:06:31;;;;;;;21.48;13.10;;;;;;;11.94;100.00;93889.03;1705323;84;21495;-59
2022/09/30 01:08:59;;;;;;;26.02;13.70;;;;;;;12.01;100.00;93887.29;1686851;84;21069;-59
2022/09/30 01:11:27;;;;;;;22.67;12.10;;;;;;;12.12;100.00;93896.35;1685731;84;21045;-59
2022/09/30 01:13:59;;;;;;;21.05;11.88;;;;;;;12.19;100.00;93900.86;1690128;82;20978;-59
2022/09/30 01:16:56;;;;;;;20.60;12.35;;;;;;;12.21;100.00;93907.27;1686521;84;21013;-58
2022/09/30 01:20:05;;;;;;;23.18;14.23;;;;;;;12.20;100.00;93913.41;1688433;85;21167;-59
2022/09/30 01:23:18;;;;;;;22.65;13.83;;;;;;;12.22;100.00;93921.97;1687924;85;21009;-58
2022/09/30 01:26:08;;;;;;;24.92;14.85;;;;;;;12.23;100.00;93934.52;1680310;84;20978;-58
2022/09/30 01:28:48;;;;;;;23.25;12.98;;;;;;;12.17;100.00;93924.02;1676635;85;21018;-58
2022/09/30 01:31:47;;;;;;;21.55;11.97;;;;;;;12.14;100.00;93923.59;1675976;85;21506;-59
2022/09/30 01:34:36;;;;;;;24.32;15.05;;;;;;;12.20;100.00;93927.80;1676444;84;21212;-58
2022/09/30 01:37:28;;;;;;;20.43;14.45;;;;;;;12.18;100.00;93928.30;1684618;84;21002;-60
2022/09/30 01:40:10;;;;;;;24.40;15.65;;;;;;;12.10;100.00;93927.78;1705121;84;20974;-59
2022/09/30 01:42:54;;;;;;;26.60;17.80;;;;;;;11.99;100.00;93942.14;1703571;83;21742;-59
2022/09/30 01:45:42;;;;;;;27.85;15.32;;;;;;;11.96;100.00;93943.09;1703954;83;21005;-58
2022/09/30 01:48:21;;;;;;;24.98;17.23;;;;;;;11.98;100.00;93948.11;1704893;83;22047;-59
2022/09/30 01:50:57;;;;;;;29.57;19.15;;;;;;;11.99;100.00;93947.66;1654509;85;21024;-58
2022/09/30 01:53:36;;;;;;;26.35;17.12;;;;;;;12.05;100.00;93939.48;1678337;85;20998;-58
2022/09/30 01:56:20;;;;;;;25.60;16.00;;;;;;;12.14;100.00;93940.14;1679142;85;20994;-60
2022/09/30 01:59:13;;;;;;;28.17;15.40;;;;;;;12.22;100.00;93940.49;1679212;85;21030;-58
2022/09/30 02:01:49;;;;;;;28.75;16.17;;;;;;;12.28;100.00;93951.02;1654517;84;21271;-59
2022/09/30 02:04:34;;;;;;;26.87;15.90;;;;;;;12.31;100.00;93960.48;1675550;85;20962;-59
2022/09/30 02:07:06;;;;;;;21.02;14.35;;;;;;;12.30;100.00;93956.18;1676541;85;21616;-58
2022/09/30 02:09:40;;;;;;;23.50;14.40;;;;;;;12.35;100.00;93963.03;1676349;85;21026;-59
2022/09/30 02:12:12;;;;;;;22.42;13.88;;;;;;;12.39;100.00;93953.33;1676038;84;21084;-58
2022/09/30 02:14:50;;;;;;;24.65;15.88;;;;;;;12.40;100.00;93958.21;1680812;84;21106;-58
2022/09/30 02:17:43;;;;;;;22.52;14.50;;;;;;;12.41;100.00;93952.86;1673817;84;21124;-59
2022/09/30 02:20:18;;;;;;;24.57;14.15;;;;;;;12.47;100.00;93954.45;1676571;85;21123;-59
2022/09/30 02:22:49;;;;;;;25.90;13.60;;;;;;;12.52;100.00;93959.31;1675913;85;20981;-58
2022/09/30 02:25:21;;;;;;;22.02;14.15;;;;;;;12.52;100.00;93960.69;1676183;85;21033;-59
2022/09/30 02:27:53;;;;;;;22.25;15.83;;;;;;;12.48;100.00;93969.02;1676925;84;21112;-58
2022/09/30 02:30:21;;;;;;;26.70;16.25;;;;;;;12.42;100.00;93966.16;1646249;86;21066;-58
2022/09/30 02:32:59;;;;;;;37.78;15.00;;;;;;;12.39;100.00;93960.23;1643429;85;21438;-58
2022/09/30 02:35:31;;;;;;;32.65;15.98;;;;;;;12.46;100.00;93961.20;1642176;87;20998;-59
2022/09/30 02:38:04;;;;;;;23.60;15.28;;;;;;;12.55;100.00;93958.35;1643101;86;21020;-59
2022/09/30 02:40:47;;;;;;;30.05;16.52;;;;;;;12.63;100.00;93974.04;1643377;87;21083;-59
2022/09/30 02:43:14;;;;;;;65.70;32.67;;;;;;;12.66;100.00;93978.59;1643668;87;21069;-60
2022/09/30 02:45:56;;;;;;;40.00;22.27;;;;;;;12.64;100.00;93971.42;1642978;86;21537;-59
2022/09/30 02:48:47;;;;;;;20.48;13.48;;;;;;;12.61;100.00;93974.36;1641844;87;21022;-58
2022/09/30 02:51:23;;;;;;;20.50;14.13;;;;;;;12.62;99.78;93973.13;1643012;87;21105;-58
2022/09/30 02:54:13;;;;;;;28.20;15.43;;;;;;;12.59;99.60;93969.95;1643229;85;21490;-59
2022/09/30 02:57:27;;;;;;;30.95;15.28;;;;;;;12.58;99.78;93965.67;1643258;87;21077;-59
2022/09/30 02:59:55;;;;;;;24.50;12.23;;;;;;;12.63;100.00;93962.23;1643550;86;21455;-59
2022/09/30 03:02:22;;;;;;;12.73;9.08;;;;;;;12.70;100.00;93964.61;1643433;86;21068;-59
2022/09/30 03:04:50;;;;;;;29.00;9.60;;;;;;;12.72;99.85;93972.53;1643314;86;21065;-59
2022/09/30 03:07:18;;;;;;;31.27;9.73;;;;;;;12.70;99.04;93979.79;1643428;86;21113;-58
2022/09/30 03:09:46;;;;;;;13.80;8.78;;;;;;;12.66;99.06;93977.22;1643727;86;20965;-59
2022/09/30 03:12:38;;;;;;;13.62;9.03;;;;;;;12.66;99.37;93981.36;1643198;85;21108;-59
2022/09/30 03:15:31;;;;;;;19.00;9.20;;;;;;;12.69;99.04;93976.89;1630082;87;21009;-60
2022/09/30 03:18:11;;;;;;;16.67;9.50;;;;;;;12.64;98.46;93974.78;1684656;84;21066;-59
2022/09/30 03:21:23;;;;;;;15.60;9.83;;;;;;;12.62;99.25;93981.40;1685910;85;21122;-59
2022/09/30 03:24:28;;;;;;;16.73;9.45;;;;;;;12.67;99.51;93982.09;1685442;85;21062;-59
2022/09/30 03:27:33;;;;;;;8.83;7.65;;;;;;;12.71;99.19;93985.45;1685339;85;21074;-59
2022/09/30 03:30:05;;;;;;;21.48;8.38;;;;;;;12.72;98.60;93985.59;1685586;85;21086;-60
2022/09/30 03:33:08;;;;;;;13.75;8.03;;;;;;;12.73;98.88;93989.86;1685436;83;21585;-60
2022/09/30 03:36:03;;;;;;;18.40;7.87;;;;;;;12.76;98.69;93988.90;1685611;85;21157;-60
2022/09/30 03:39:01;;;;;;;10.85;8.43;;;;;;;12.72;97.88;93994.61;1684008;85;20994;-60
2022/09/30 03:41:40;;;;;;;9.50;8.28;;;;;;;12.62;97.63;94001.48;1686122;85;21031;-59
2022/09/30 03:44:16;;;;;;;9.25;7.87;;;;;;;12.56;98.00;93992.34;1685766;85;20978;-59
2022/09/30 03:46:49;;;;;;;10.13;8.13;;;;;;;12.53;97.93;93997.44;1676561;84;21009;-59
2022/09/30 03:49:23;;;;;;;12.28;8.58;;;;;;;12.51;98.40;93995.04;1676560;85;21190;-59
2022/09/30 03:51:52;;;;;;;15.78;9.28;;;;;;;12.54;98.96;93998.22;1643379;86;21077;-59
2022/09/30 03:54:19;;;;;;;16.25;9.33;;;;;;;12.50;98.31;94001.80;1640676;86;21580;-59
2022/09/30 03:56:47;;;;;;;16.48;9.45;;;;;;;12.51;98.56;94017.11;1642149;86;21038;-58
2022/09/30 03:59:25;;;;;;;12.98;9.20;;;;;;;12.48;98.23;94011.77;1642243;86;21089;-58
2022/09/30 04:01:52;;;;;;;13.95;8.35;;;;;;;12.46;98.26;94015.00;1667084;85;21475;-57
2022/09/30 04:04:20;;;;;;;10.88;9.28;;;;;;;12.40;98.26;94018.29;1676327;85;21072;-58
2022/09/30 04:06:48;;;;;;;19.05;10.05;;;;;;;12.34;98.35;94027.70;1676593;84;21544;-59
2022/09/30 04:09:16;;;;;;;10.68;8.10;;;;;;;12.33;99.01;94032.47;1664999;86;21077;-58
2022/09/30 04:11:44;;;;;;;14.63;9.08;;;;;;;12.40;99.27;94032.69;1653820;85;20998;-59
2022/09/30 04:14:13;;;;;;;13.85;9.25;;;;;;;12.40;99.33;94039.59;1658667;84;21213;-58
2022/09/30 04:16:42;;;;;;;15.93;10.43;;;;;;;12.42;99.57;94045.41;1679802;85;21036;-59
2022/09/30 04:19:10;;;;;;;12.85;9.08;;;;;;;12.45;99.51;94054.86;1636873;87;21057;-60
2022/09/30 04:21:38;;;;;;;14.10;8.63;;;;;;;12.46;99.50;94050.12;1648174;87;20989;-58
2022/09/30 04:24:07;;;;;;;11.15;8.38;;;;;;;12.48;99.19;94047.00;1659816;86;21031;-59
2022/09/30 04:26:36;;;;;;;11.88;8.55;;;;;;;12.46;98.62;94047.36;1665448;85;21203;-60
2022/09/30 04:29:04;;;;;;;19.77;9.15;;;;;;;12.45;99.02;94041.70;1686071;85;21109;-57
2022/09/30 04:31:31;;;;;;;14.65;9.00;;;;;;;12.44;98.49;94040.92;1686081;84;21022;-58
2022/09/30 04:33:59;;;;;;;11.55;8.10;;;;;;;12.40;98.43;94037.60;1685994;83;21515;-57
2022/09/30 04:36:27;;;;;;;9.30;7.95;;;;;;;12.37;98.50;94035.02;1686150;85;21022;-58
2022/09/30 04:38:57;;;;;;;12.98;7.80;;;;;;;12.34;98.50;94030.46;1624018;87;21283;-59
2022/09/30 04:41:25;;;;;;;15.70;9.95;;;;;;;12.30;98.39;94034.78;1630498;88;21002;-58
2022/09/30 04:43:54;;;;;;;12.33;8.95;;;;;;;12.28;98.83;94035.88;1630114;87;21569;-58
2022/09/30 04:46:22;;;;;;;13.85;8.88;;;;;;;12.30;99.22;94033.41;1630635;87;21518;-58
2022/09/30 04:48:49;;;;;;;11.15;8.85;;;;;;;12.36;99.65;94028.77;1630353;87;21585;-59
2022/09/30 04:51:19;;;;;;;13.22;9.30;;;;;;;12.36;99.47;94023.25;1653166;85;21151;-64
2022/09/30 04:53:47;;;;;;;8.80;7.90;;;;;;;12.40;99.56;94015.53;1685883;83;21435;-56
2022/09/30 04:56:17;;;;;;;10.05;7.85;;;;;;;12.45;99.45;94020.38;1685869;84;20967;-55
2022/09/30 04:58:45;;;;;;;8.83;7.40;;;;;;;12.47;99.03;94030.31;1664431;85;20990;-57
2022/09/30 05:01:15;;;;;;;13.15;8.10;;;;;;;12.46;98.49;94041.20;1686367;85;21054;-58
2022/09/30 05:03:43;;;;;;;10.05;7.22;;;;;;;12.44;98.39;94038.80;1671601;85;21763;-59
2022/09/30 05:06:13;;;;;;;9.53;7.53;;;;;;;12.41;98.05;94048.77;1660062;86;21050;-59
2022/09/30 05:08:42;;;;;;;8.18;6.28;;;;;;;12.41;98.00;94061.19;1659926;86;21519;-62
2022/09/30 05:11:14;;;;;;;10.78;7.47;;;;;;;12.40;97.79;94058.29;1660070;85;21042;-63
2022/09/30 05:13:42;;;;;;;9.20;7.47;;;;;;;12.34;97.41;94063.56;1667391;84;21075;-62
2022/09/30 05:16:10;;;;;;;10.93;7.10;;;;;;;12.25;97.21;94065.78;1680831;85;21172;-60
2022/09/30 05:18:41;;;;;;;25.37;12.15;;;;;;;12.15;97.54;94080.91;1682465;85;21070;-62
2022/09/30 05:21:09;;;;;;;8.75;7.42;;;;;;;12.11;97.87;94081.69;1679977;85;21110;-63
2022/09/30 05:23:37;;;;;;;11.10;7.15;;;;;;;12.12;98.39;94084.58;1682295;85;21011;-61
2022/09/30 05:26:06;;;;;;;14.75;9.33;;;;;;;12.22;98.96;94088.02;1657370;85;21026;-63
2022/09/30 05:28:34;;;;;;;10.10;7.17;;;;;;;12.22;98.22;94099.05;1650653;85;21206;-62
2022/09/30 05:31:04;;;;;;;12.73;7.17;;;;;;;12.23;98.40;94099.23;1676336;85;21505;-62
2022/09/30 05:33:32;;;;;;;11.90;7.45;;;;;;;12.26;98.36;94093.50;1630110;85;21075;-61
2022/09/30 05:36:03;;;;;;;14.13;8.25;;;;;;;12.29;98.20;94098.07;1669464;85;22280;-60
2022/09/30 05:38:32;;;;;;;7.67;6.22;;;;;;;12.31;98.09;94106.66;1671981;85;21020;-62
2022/09/30 05:41:10;;;;;;;7.83;7.03;;;;;;;12.33;98.29;94098.67;1666531;85;21157;-60
2022/09/30 05:43:39;;;;;;;15.32;9.03;;;;;;;12.36;98.29;94100.48;1672621;85;21056;-61
2022/09/30 05:46:07;;;;;;;13.38;8.45;;;;;;;12.43;98.36;94103.48;1660188;84;21563;-60
2022/09/30 05:48:35;;;;;;;15.32;9.28;;;;;;;12.44;97.70;94096.09;1652487;85;21055;-59
2022/09/30 05:51:02;;;;;;;13.80;10.08;;;;;;;12.44;98.00;94100.23;1692334;83;21588;-64
2022/09/30 05:53:35;;;;;;;12.88;9.85;;;;;;;12.51;98.02;94108.76;1679562;83;21195;-64
2022/09/30 05:56:02;;;;;;;15.15;8.55;;;;;;;12.55;97.99;94113.61;1680812;83;21511;-66
2022/09/30 05:58:30;;;;;;;9.30;7.47;;;;;;;12.58;97.64;94117.42;1652365;85;21028;-63
2022/09/30 06:01:01;;;;;;;15.13;7.97;;;;;;;12.56;97.43;94122.66;1670482;83;21107;-66
2022/09/30 06:03:29;;;;;;;16.62;9.08;;;;;;;12.53;97.45;94119.47;1682737;83;21069;-65
2022/09/30 06:05:57;;;;;;;10.05;8.73;;;;;;;12.54;97.58;94125.13;1662198;85;21557;-64
2022/09/30 06:08:24;;;;;;;12.23;10.05;;;;;;;12.56;97.87;94126.80;1678893;83;21120;-65
2022/09/30 06:10:53;;;;;;;11.20;9.28;;;;;;;12.55;97.54;94126.66;1691661;83;21100;-67
2022/09/30 06:13:21;;;;;;;9.18;8.23;;;;;;;12.50;97.50;94124.56;1683412;82;21110;-71
2022/09/30 06:15:58;;;;;;;20.12;7.87;;;;;;;12.52;97.59;94123.47;1643968;85;21020;-67
2022/09/30 06:18:27;;;;;;;27.93;11.03;;;;;;;12.53;97.55;94115.94;1688723;83;21845;-63
2022/09/30 06:20:58;;;;;;;13.75;10.58;;;;;;;12.54;97.74;94119.62;1696726;83;21096;-67
2022/09/30 06:23:26;;;;;;;12.93;9.83;;;;;;;12.59;97.78;94116.19;1690658;83;20980;-64
2022/09/30 06:25:54;;;;;;;13.10;8.28;;;;;;;12.61;97.59;94128.89;1701517;83;21134;-61
2022/09/30 06:28:21;;;;;;;16.07;11.08;;;;;;;12.63;97.89;94135.47;1691534;83;21029;-66
2022/09/30 06:30:49;;;;;;;11.68;9.68;;;;;;;12.76;98.34;94137.94;1670608;84;21150;-66
2022/09/30 06:33:17;;;;;;;20.97;10.00;;;;;;;12.92;97.85;94140.23;1691653;83;20996;-60
2022/09/30 06:35:46;;;;;;;14.38;11.78;;;;;;;12.99;96.87;94146.17;1694331;83;21074;-61
2022/09/30 06:38:15;;;;;;;13.98;9.00;;;;;;;13.03;96.18;94147.34;1695299;83;21083;-66
2022/09/30 06:40:44;;;;;;;26.68;9.40;;;;;;;12.99;95.49;94140.64;1693385;83;21124;-60
2022/09/30 06:43:12;;;;;;;13.70;10.13;;;;;;;12.98;95.41;94139.73;1671175;83;21184;-63
2022/09/30 06:45:41;;;;;;;11.38;8.73;;;;;;;12.97;95.56;94147.27;1695893;83;20990;-66
2022/09/30 06:48:09;;;;;;;22.62;11.97;;;;;;;13.02;95.62;94142.45;1646380;83;21507;-60
2022/09/30 06:50:38;;;;;;;13.48;10.20;;;;;;;13.02;95.55;94156.25;1691451;84;21049;-61
2022/09/30 06:53:07;;;;;;;14.43;10.32;;;;;;;13.08;95.55;94149.45;1698348;81;21068;-63
2022/09/30 06:55:37;;;;;;;17.55;12.20;;;;;;;13.09;95.11;94150.97;1702599;83;21166;-62
2022/09/30 06:58:12;;;;;;;27.45;12.90;;;;;;;13.10;94.94;94155.25;1692315;83;21124;-61
2022/09/30 07:00:40;;;;;;;17.57;12.47;;;;;;;13.12;94.93;94149.38;1694971;83;20999;-63
2022/09/30 07:03:16;;;;;;;20.45;12.15;;;;;;;13.15;94.77;94154.58;1695948;83;21075;-61
2022/09/30 07:05:44;;;;;;;12.13;10.40;;;;;;;13.19;95.20;94159.28;1694656;83;21003;-58
2022/09/30 07:08:12;;;;;;;48.40;12.58;;;;;;;13.23;95.22;94159.23;1691090;83;21239;-60
2022/09/30 07:10:40;;;;;;;16.87;11.83;;;;;;;13.30;95.22;94162.98;1696673;83;21006;-58
2022/09/30 07:13:09;;;;;;;31.80;21.60;;;;;;;13.40;95.06;94163.63;1695821;83;22218;-61
2022/09/30 07:15:36;;;;;;;20.68;13.75;;;;;;;13.47;94.67;94164.64;1672251;84;21171;-62
2022/09/30 07:18:05;;;;;;;18.12;12.85;;;;;;;13.50;94.18;94170.58;1650156;84;22255;-62
2022/09/30 07:20:35;;;;;;;20.92;12.82;;;;;;;13.49;93.83;94175.97;1678440;83;21795;-61
2022/09/30 07:23:03;;;;;;;29.18;13.60;;;;;;;13.49;94.00;94175.97;1679617;84;21542;-61
2022/09/30 07:25:32;;;;;;;17.70;13.45;;;;;;;13.57;94.13;94166.03;1676757;84;21080;-62
2022/09/30 07:28:01;;;;;;;15.72;12.73;;;;;;;13.60;93.53;94175.52;1661760;84;21137;-64
2022/09/30 07:30:30;;;;;;;18.05;13.13;;;;;;;13.58;93.34;94171.70;1647918;85;21606;-64
2022/09/30 07:32:58;;;;;;;30.80;14.87;;;;;;;13.63;93.69;94178.70;1673649;84;22152;-64
2022/09/30 07:35:25;;;;;;;36.33;13.75;;;;;;;13.74;93.84;94172.56;1670877;84;21040;-63
2022/09/30 07:37:54;;;;;;;19.98;13.60;;;;;;;13.85;93.45;94185.92;1675993;84;21106;-62
2022/09/30 07:40:22;;;;;;;18.10;11.95;;;;;;;13.91;93.04;94188.17;1677491;84;21493;-60
2022/09/30 07:42:50;;;;;;;15.43;11.78;;;;;;;13.93;92.78;94196.73;1672663;84;21083;-64
2022/09/30 07:45:18;;;;;;;14.20;10.98;;;;;;;13.95;92.48;94197.02;1674335;84;21136;-63
2022/09/30 07:47:46;;;;;;;16.75;13.13;;;;;;;14.02;92.45;94206.92;1680641;85;21045;-66
2022/09/30 07:50:16;;;;;;;21.33;13.58;;;;;;;14.07;92.11;94211.15;1677535;84;21059;-65
2022/09/30 07:52:45;;;;;;;16.60;13.03;;;;;;;14.08;92.11;94211.89;1639372;86;21214;-62
2022/09/30 07:55:13;;;;;;;23.00;10.98;;;;;;;14.10;92.16;94212.17;1677958;83;21127;-65
2022/09/30 07:57:41;;;;;;;17.50;10.35;;;;;;;14.21;92.21;94213.75;1673634;83;21123;-67
2022/09/30 08:00:11;;;;;;;13.40;11.35;;;;;;;14.32;91.57;94204.97;1677176;84;20980;-65
2022/09/30 08:02:39;;;;;;;12.50;7.83;;;;;;;14.38;91.00;94210.58;1668295;84;21328;-64
2022/09/30 08:05:07;;;;;;;10.43;8.10;;;;;;;14.45;90.59;94201.98;1675373;84;21112;-66
2022/09/30 08:07:36;;;;;;;17.35;9.93;;;;;;;14.53;89.65;94205.88;1676719;84;21028;-65
2022/09/30 08:10:06;;;;;;;12.07;8.43;;;;;;;14.64;89.25;94201.84;1645682;84;21247;-67
2022/09/30 08:12:35;;;;;;;22.07;7.75;;;;;;;14.77;88.90;94202.24;1677861;84;21083;-65
2022/09/30 08:15:05;;;;;;;14.80;7.85;;;;;;;14.94;88.11;94199.03;1625336;84;21272;-66
2022/09/30 08:17:33;;;;;;;14.60;9.38;;;;;;;15.03;87.23;94196.09;1678735;84;21565;-64
2022/09/30 08:20:02;;;;;;;18.65;9.53;;;;;;;15.04;86.75;94194.09;1686750;84;21080;-67
2022/09/30 08:22:31;;;;;;;27.93;10.05;;;;;;;15.06;86.71;94201.28;1657570;84;21264;-65
2022/09/30 08:24:59;;;;;;;11.38;8.60;;;;;;;15.12;86.69;94197.33;1674591;84;21035;-69
2022/09/30 08:27:29;;;;;;;44.85;10.53;;;;;;;15.24;85.91;94194.03;1678787;85;21588;-67
2022/09/30 08:29:57;;;;;;;17.10;10.80;;;;;;;15.32;85.38;94195.16;1683781;82;21110;-63
2022/09/30 08:32:31;;;;;;;18.60;11.50;;;;;;;15.41;85.16;94191.59;1654287;85;21116;-67
2022/09/30 08:34:58;;;;;;;16.95;9.58;;;;;;;15.53;84.69;94187.63;1629928;86;21119;-64
2022/09/30 08:37:25;;;;;;;16.50;8.73;;;;;;;15.63;83.95;94189.59;1643354;87;21132;-66
2022/09/30 08:39:57;;;;;;;13.53;8.13;;;;;;;15.71;83.67;94192.81;1586805;89;21097;-65
2022/09/30 08:42:59;;;;;;;16.57;9.15;;;;;;;15.84;82.87;94187.63;1645062;85;22000;-66
2022/09/30 08:45:34;;;;;;;13.85;10.45;;;;;;;15.95;82.12;94184.91;1643971;85;21050;-63
2022/09/30 08:48:16;;;;;;;24.25;9.63;;;;;;;16.08;81.65;94189.41;1589704;86;21353;-64
2022/09/30 08:50:52;;;;;;;17.10;9.73;;;;;;;16.14;81.17;94186.05;1656149;85;21073;-68
2022/09/30 08:53:29;;;;;;;13.75;9.05;;;;;;;16.28;81.50;94187.13;1649131;86;20953;-67
2022/09/30 08:56:01;;;;;;;13.95;10.15;;;;;;;16.43;80.98;94185.72;1647188;86;21167;-67
2022/09/30 08:58:38;;;;;;;16.67;10.10;;;;;;;16.55;80.17;94185.26;1642760;85;21132;-66
2022/09/30 09:01:26;;;;;;;30.80;10.88;;;;;;;16.68;79.56;94184.80;1643194;85;21310;-62
2022/09/30 09:03:54;;;;;;;18.98;9.95;;;;;;;16.81;78.96;94182.33;1646260;85;21078;-61
2022/09/30 09:06:39;;;;;;;13.75;10.45;;;;;;;16.94;78.45;94182.62;1627536;85;21129;-63
2022/09/30 09:10:00;;;;;;;27.13;11.53;;;;;;;17.09;77.82;94189.47;1616581;87;21552;-67
2022/09/30 09:12:45;;;;;;;21.45;10.20;;;;;;;17.26;76.94;94185.35;1607818;88;21096;-62
2022/09/30 09:15:30;;;;;;;14.65;9.20;;;;;;;17.45;76.07;94187.16;1605770;88;22064;-68
2022/09/30 09:18:42;;;;;;;12.75;7.30;;;;;;;17.57;75.76;94182.35;1638264;85;21137;-67
2022/09/30 09:21:36;;;;;;;18.40;6.72;;;;;;;17.71;75.43;94177.17;1658858;85;21078;-66
2022/09/30 09:24:05;;;;;;;17.35;7.05;;;;;;;17.83;74.51;94178.70;1615426;85;21075;-68
2022/09/30 09:26:35;;;;;;;17.20;6.97;;;;;;;17.89;73.53;94173.88;1626665;86;21068;-63
2022/09/30 09:29:44;;;;;;;9.13;5.83;;;;;;;17.97;73.48;94167.28;1638187;86;21172;-61
2022/09/30 09:32:16;;;;;;;19.15;6.50;;;;;;;18.13;73.67;94175.47;1646267;85;21481;-67
2022/09/30 09:34:46;;;;;;;18.23;7.08;;;;;;;18.28;72.37;94177.49;1648205;85;21101;-69
2022/09/30 09:40:56;;;;;;;12.45;6.92;;;;;;;18.61;71.99;94169.03;1641671;85;21075;-62
2022/09/30 09:43:32;;;;;;;19.20;8.50;;;;;;;18.82;71.86;94162.50;1596154;87;21415;-67
2022/09/30 09:46:26;;;;;;;11.48;7.47;;;;;;;19.00;71.83;94161.24;1668022;85;22187;-63
2022/09/30 09:49:22;;;;;;;10.72;6.62;;;;;;;19.20;71.49;94156.72;1647997;85;21168;-61
2022/09/30 09:51:54;;;;;;;12.58;6.35;;;;;;;19.58;71.31;94150.09;1644028;85;21065;-62
2022/09/30 09:54:23;;;;;;;29.35;7.30;;;;;;;20.28;70.52;94149.98;1623671;85;21142;-64
2022/09/30 09:56:51;;;;;;;8.95;5.97;;;;;;;20.82;67.96;94147.83;1655816;85;21288;-69
2022/09/30 09:59:19;;;;;;;10.30;5.40;;;;;;;21.39;65.68;94147.33;1655258;85;21121;-66
2022/09/30 10:01:53;;;;;;;7.25;4.50;;;;;;;21.94;64.39;94143.04;1630563;86;21069;-65
2022/09/30 10:04:27;;;;;;;5.90;3.00;;;;;;;22.47;61.76;94138.39;1650747;85;21588;-61
2022/09/30 10:07:12;;;;;;;4.33;3.08;;;;;;;22.96;60.06;94142.25;1640647;87;21029;-65
2022/09/30 10:09:41;;;;;;;3.20;2.45;;;;;;;23.42;58.40;94133.08;1650610;85;21260;-66
2022/09/30 10:12:14;;;;;;;20.48;3.95;;;;;;;23.93;56.37;94131.38;1663543;84;21051;-62
2022/09/30 10:15:00;;;;;;;8.68;2.67;;;;;;;24.23;54.71;94138.67;1674031;85;21040;-63
2022/09/30 10:17:34;;;;;;;5.47;1.87;;;;;;;24.35;53.82;94142.72;1656892;85;21048;-64
2022/09/30 10:20:15;;;;;;;4.35;1.65;;;;;;;24.27;51.85;94141.25;1651533;86;21049;-69
2022/09/30 10:22:43;;;;;;;14.28;2.85;;;;;;;24.26;51.39;94143.19;1632448;85;21674;-64
2022/09/30 10:25:16;;;;;;;4.65;1.65;;;;;;;24.46;50.34;94136.14;1660487;83;21193;-65
2022/09/30 10:28:03;;;;;;;8.18;2.00;;;;;;;24.53;49.36;94143.16;1672558;84;21058;-66
2022/09/30 10:30:38;;;;;;;2.55;1.60;;;;;;;24.30;49.70;94136.56;1633321;86;21077;-64
2022/09/30 10:33:13;;;;;;;7.42;1.90;;;;;;;24.08;50.80;94135.09;1657598;86;21047;-65
2022/09/30 10:35:49;;;;;;;8.28;3.67;;;;;;;23.94;50.51;94145.53;1662722;86;23800;-64
2022/09/30 10:38:17;;;;;;;13.03;5.65;;;;;;;23.58;52.49;94156.48;1637787;84;21054;-66
2022/09/30 10:40:48;;;;;;;13.55;5.47;;;;;;;22.99;53.87;94155.19;1629942;87;21067;-61
2022/09/30 10:43:23;;;;;;;10.98;5.10;;;;;;;22.64;55.42;94147.23;1597310;86;21028;-62
2022/09/30 10:45:50;;;;;;;9.38;5.17;;;;;;;22.39;56.89;94159.95;1635184;86;21321;-65
2022/09/30 10:48:20;;;;;;;7.05;3.90;;;;;;;22.03;58.35;94157.39;1636798;86;21074;-64
2022/09/30 10:50:52;;;;;;;33.02;12.68;;;;;;;21.59;59.89;94158.73;1636752;87;21170;-65
2022/09/30 10:53:23;;;;;;;12.10;6.62;;;;;;;21.21;60.88;94150.27;1653916;86;21107;-65
2022/09/30 10:55:52;;;;;;;12.75;5.12;;;;;;;21.07;61.12;94154.27;1633351;86;21633;-63
2022/09/30 10:58:40;;;;;;;20.02;5.53;;;;;;;20.97;61.90;94140.56;1638473;86;21585;-65
2022/09/30 11:01:31;;;;;;;11.95;4.92;;;;;;;20.84;62.42;94145.30;1630235;86;21850;-63
2022/09/30 11:04:25;;;;;;;15.48;4.70;;;;;;;20.68;63.24;94144.83;1636695;87;21022;-65
2022/09/30 11:07:16;;;;;;;11.18;4.58;;;;;;;20.46;63.00;94147.88;1636238;86;21543;-63
2022/09/30 11:10:10;;;;;;;14.20;6.12;;;;;;;20.24;63.07;94150.92;1646809;86;21017;-63
2022/09/30 11:12:46;;;;;;;16.50;6.15;;;;;;;20.09;64.51;94152.62;1646232;85;21043;-64
2022/09/30 11:15:23;;;;;;;16.35;6.30;;;;;;;19.95;65.59;94151.67;1641559;85;21164;-64
2022/09/30 11:18:08;;;;;;;12.82;6.40;;;;;;;19.86;66.06;94161.80;1643061;85;22225;-64
2022/09/30 11:20:46;;;;;;;13.75;6.50;;;;;;;19.79;66.79;94160.98;1661443;83;21086;-65
2022/09/30 11:23:37;;;;;;;20.15;10.50;;;;;;;19.70;66.71;94156.38;1639656;85;21168;-65
2022/09/30 11:26:34;;;;;;;17.17;7.72;;;;;;;19.60;67.66;94160.10;1625948;85;21585;-65
2022/09/30 11:29:35;;;;;;;18.98;7.17;;;;;;;19.66;68.13;94171.22;1651561;86;21779;-65
2022/09/30 11:32:26;;;;;;;20.08;7.80;;;;;;;19.76;68.55;94162.66;1652680;86;21564;-59
2022/09/30 11:35:19;;;;;;;8.50;5.97;;;;;;;19.92;68.36;94152.73;1634320;85;21061;-62
2022/09/30 11:38:25;;;;;;;8.90;4.33;;;;;;;19.98;67.94;94161.06;1648213;85;21035;-64
2022/09/30 11:41:28;;;;;;;9.90;2.58;;;;;;;20.01;64.75;94153.80;1624957;87;21035;-63
2022/09/30 11:44:19;;;;;;;3.85;1.70;;;;;;;20.09;60.51;94160.34;1685742;83;21163;-66
2022/09/30 11:46:55;;;;;;;1.45;1.22;;;;;;;20.17;58.29;94166.88;1676855;84;21719;-64
2022/09/30 11:49:44;;;;;;;12.93;2.17;;;;;;;20.23;57.96;94150.81;1676462;84;21056;-66
2022/09/30 11:52:35;;;;;;;1.75;1.50;;;;;;;20.28;57.75;94160.53;1688696;83;21577;-64
2022/09/30 11:55:12;;;;;;;2.83;1.77;;;;;;;20.33;57.48;94153.36;1638831;87;21103;-66
2022/09/30 11:58:05;;;;;;;3.92;2.25;;;;;;;20.47;57.52;94146.60;1673850;84;21298;-64
2022/09/30 12:00:35;;;;;;;3.95;1.50;;;;;;;20.64;57.83;94147.17;1673661;84;21017;-62
2022/09/30 12:03:26;;;;;;;4.80;2.00;;;;;;;20.78;56.58;94147.37;1674934;84;21193;-60